createdAt,value
2022-12-25T00:00:57.812Z,7.96
2022-12-25T00:04:17.707Z,7.99
2022-12-25T00:07:25.067Z,7.96
2022-12-25T00:10:45.014Z,7.88
2022-12-25T00:13:53.171Z,8.00
2022-12-25T00:17:13.543Z,7.97
2022-12-25T00:20:29.958Z,8.00
2022-12-25T00:23:44.330Z,8.03
2022-12-25T00:26:59.822Z,7.94
2022-12-25T00:30:22.515Z,7.94
2022-12-25T00:33:35.147Z,7.92
2022-12-25T00:36:41.864Z,7.88
2022-12-25T00:39:52.460Z,7.76
2022-12-25T00:42:59.231Z,7.70
2022-12-25T00:46:05.015Z,7.59
2022-12-25T00:49:18.526Z,7.50
2022-12-25T00:52:41.785Z,7.35
2022-12-25T00:56:01.675Z,7.34
2022-12-25T00:59:23.568Z,7.20
2022-12-25T01:02:45.673Z,7.13
2022-12-25T01:06:00.823Z,7.08
2022-12-25T01:09:50.523Z,7.21
2022-12-25T01:12:54.015Z,7.29
2022-12-25T01:16:16.460Z,7.27
2022-12-25T01:19:37.564Z,7.23
2022-12-25T01:22:59.567Z,7.25
2022-12-25T01:26:24.707Z,7.23
2022-12-25T01:29:27.814Z,7.21
2022-12-25T01:32:30.886Z,7.20
2022-12-25T01:35:41.354Z,7.16
2022-12-25T01:38:45.263Z,7.16
2022-12-25T01:41:49.427Z,7.07
2022-12-25T01:45:36.019Z,7.03
2022-12-25T01:48:51.801Z,7.00
2022-12-25T01:52:23.884Z,7.02
2022-12-25T01:55:48.448Z,7.02
2022-12-25T01:59:15.215Z,7.13
2022-12-25T02:02:38.241Z,7.15
2022-12-25T02:05:54.665Z,7.10
2022-12-25T02:09:10.412Z,7.07
2022-12-25T02:12:46.062Z,6.99
2022-12-25T02:16:14.403Z,7.05
2022-12-25T02:19:53.943Z,6.96
2022-12-25T02:23:28.610Z,7.03
2022-12-25T02:26:55.908Z,7.09
2022-12-25T02:30:10.387Z,7.08
2022-12-25T02:33:45.886Z,7.00
2022-12-25T02:36:55.736Z,6.94
2022-12-25T02:40:07.932Z,6.95
2022-12-25T02:43:37.231Z,7.01
2022-12-25T02:47:04.295Z,7.04
2022-12-25T02:50:35.056Z,6.97
2022-12-25T02:54:06.267Z,6.96
2022-12-25T02:57:50.318Z,6.91
2022-12-25T03:01:38.810Z,6.91
2022-12-25T03:05:18.346Z,6.97
2022-12-25T03:08:34.961Z,6.89
2022-12-25T03:11:48.666Z,6.86
2022-12-25T03:15:23.232Z,6.83
2022-12-25T03:18:34.297Z,6.88
2022-12-25T03:22:10.178Z,6.87
2022-12-25T03:25:37.683Z,6.75
2022-12-25T03:28:40.586Z,6.66
2022-12-25T03:32:03.336Z,6.57
2022-12-25T03:35:29.374Z,6.52
2022-12-25T03:39:09.524Z,6.55
2022-12-25T03:42:40.622Z,6.53
2022-12-25T03:46:09.213Z,6.55
2022-12-25T03:49:55.910Z,6.54
2022-12-25T03:53:30.360Z,6.51
2022-12-25T03:56:54.191Z,6.83
2022-12-25T04:00:21.411Z,6.91
2022-12-25T04:03:47.128Z,6.92
2022-12-25T04:07:12.756Z,6.92
2022-12-25T04:10:35.017Z,6.91
2022-12-25T04:14:15.315Z,6.84
2022-12-25T04:17:47.114Z,6.64
2022-12-25T04:21:12.234Z,6.54
2022-12-25T04:24:37.456Z,6.52
2022-12-25T04:28:02.611Z,6.52
2022-12-25T04:31:31.971Z,6.47
2022-12-25T04:34:54.118Z,6.50
2022-12-25T04:37:57.770Z,6.57
2022-12-25T04:41:05.355Z,6.55
2022-12-25T04:44:18.408Z,6.56
2022-12-25T04:47:25.572Z,6.44
2022-12-25T04:50:29.339Z,6.49
2022-12-25T04:53:52.027Z,6.40
2022-12-25T04:57:13.763Z,6.31
2022-12-25T05:00:35.749Z,6.23
2022-12-25T05:03:44.843Z,6.10
2022-12-25T05:07:01.022Z,6.05
2022-12-25T05:10:37.000Z,5.95
2022-12-25T05:14:05.020Z,5.84
2022-12-25T05:17:29.784Z,5.83
2022-12-25T05:20:51.967Z,5.74
2022-12-25T05:24:01.860Z,5.68
2022-12-25T05:27:11.616Z,5.67
2022-12-25T05:30:21.528Z,5.77
2022-12-25T05:33:31.458Z,5.96
2022-12-25T05:36:47.185Z,6.10
2022-12-25T05:40:16.889Z,5.98
2022-12-25T05:43:39.506Z,5.84
2022-12-25T05:46:56.352Z,5.84
2022-12-25T05:50:12.032Z,5.72
2022-12-25T05:53:40.933Z,5.77
2022-12-25T05:57:07.488Z,5.81
2022-12-25T06:00:23.965Z,5.80
2022-12-25T06:03:43.844Z,5.85
2022-12-25T06:07:00.114Z,5.87
2022-12-25T06:10:28.106Z,5.80
2022-12-25T06:14:04.362Z,5.53
2022-12-25T06:17:24.389Z,5.40
2022-12-25T06:20:44.491Z,5.31
2022-12-25T06:23:53.318Z,5.21
2022-12-25T06:27:08.935Z,5.16
2022-12-25T06:30:37.769Z,5.20
2022-12-25T06:34:12.940Z,5.17
2022-12-25T06:37:22.407Z,5.18
2022-12-25T06:40:44.817Z,5.16
2022-12-25T06:43:54.422Z,5.08
2022-12-25T06:47:04.242Z,5.01
2022-12-25T06:50:11.240Z,5.01
2022-12-25T06:53:18.248Z,4.98
2022-12-25T06:56:24.994Z,4.98
2022-12-25T06:59:31.834Z,4.93
2022-12-25T07:02:54.697Z,4.98
2022-12-25T07:06:04.409Z,5.02
2022-12-25T07:09:20.691Z,5.11
2022-12-25T07:12:50.838Z,5.12
2022-12-25T07:16:18.789Z,4.99
2022-12-25T07:19:44.608Z,5.07
2022-12-25T07:23:01.751Z,5.07
2022-12-25T07:26:18.474Z,5.11
2022-12-25T07:29:22.572Z,5.05
2022-12-25T07:32:25.471Z,4.97
2022-12-25T07:35:32.201Z,5.01
2022-12-25T07:41:43.851Z,5.10
2022-12-25T07:45:03.754Z,5.19
2022-12-25T07:48:24.652Z,5.17
2022-12-25T07:51:38.807Z,5.31
2022-12-25T07:55:06.681Z,5.41
2022-12-25T07:58:33.626Z,5.46
2022-12-25T08:01:56.783Z,5.54
2022-12-25T08:05:13.713Z,5.59
2022-12-25T08:08:34.588Z,5.67
2022-12-25T08:11:55.629Z,5.65
2022-12-25T08:15:18.580Z,5.71
2022-12-25T08:18:48.590Z,5.69
2022-12-25T08:22:08.521Z,5.69
2022-12-25T08:25:28.577Z,5.73
2022-12-25T08:28:32.487Z,5.79
2022-12-25T08:31:46.477Z,5.76
2022-12-25T08:34:50.982Z,5.82
2022-12-25T08:38:00.040Z,5.92
2022-12-25T08:41:12.964Z,5.96
2022-12-25T08:44:22.757Z,6.14
2022-12-25T08:47:29.067Z,6.32
2022-12-25T08:50:41.619Z,6.48
2022-12-25T08:53:59.422Z,6.45
2022-12-25T08:57:23.500Z,6.37
2022-12-25T09:00:43.391Z,6.47
2022-12-25T09:03:50.700Z,6.53
2022-12-25T09:06:54.642Z,6.57
2022-12-25T09:10:04.095Z,6.66
2022-12-25T09:13:27.416Z,6.66
2022-12-25T09:16:57.469Z,6.74
2022-12-25T09:20:17.339Z,6.81
2022-12-25T09:23:37.532Z,6.97
2022-12-25T09:26:53.914Z,7.01
2022-12-25T09:30:16.327Z,7.02
2022-12-25T09:33:50.387Z,7.05
2022-12-25T09:37:15.156Z,7.30
2022-12-25T09:40:40.100Z,7.57
2022-12-25T09:44:00.393Z,8.02
2022-12-25T09:47:25.197Z,8.46
2022-12-25T09:50:56.336Z,8.81
2022-12-25T09:54:26.474Z,9.14
2022-12-25T09:57:33.654Z,9.41
2022-12-25T10:00:58.191Z,9.50
2022-12-25T10:04:40.948Z,9.59
2022-12-25T10:08:03.735Z,9.68
2022-12-25T10:11:25.060Z,9.70
2022-12-25T10:14:58.700Z,9.76
2022-12-25T10:18:30.971Z,10.05
2022-12-25T10:21:48.265Z,10.19
2022-12-25T10:25:13.509Z,10.30
2022-12-25T10:28:45.887Z,10.42
2022-12-25T10:32:06.778Z,10.40
2022-12-25T10:35:31.854Z,10.18
2022-12-25T10:38:52.880Z,10.31
2022-12-25T10:42:41.149Z,10.41
2022-12-25T10:45:49.930Z,10.44
2022-12-25T10:49:00.563Z,10.48
2022-12-25T10:52:22.065Z,10.64
2022-12-25T10:55:39.117Z,10.65
2022-12-25T10:59:06.057Z,10.76
2022-12-25T11:02:34.995Z,10.85
2022-12-25T11:05:38.254Z,10.88
2022-12-25T11:09:02.160Z,10.90
2022-12-25T11:12:27.166Z,10.98
2022-12-25T11:16:03.851Z,11.11
2022-12-25T11:19:30.985Z,11.19
2022-12-25T11:22:48.093Z,11.30
2022-12-25T11:26:07.877Z,11.43
2022-12-25T11:29:36.806Z,11.47
2022-12-25T11:32:55.648Z,11.56
2022-12-25T11:36:14.856Z,11.72
2022-12-25T11:39:38.109Z,11.87
2022-12-25T11:43:07.671Z,11.96
2022-12-25T11:46:31.868Z,12.00
2022-12-25T11:49:58.605Z,12.04
2022-12-25T11:53:19.019Z,12.11
2022-12-25T11:56:29.271Z,12.15
2022-12-25T11:59:57.238Z,12.23
2022-12-25T12:03:21.367Z,12.32
2022-12-25T12:06:51.372Z,12.41
2022-12-25T12:10:06.628Z,12.52
2022-12-25T12:13:44.255Z,12.63
2022-12-25T12:16:52.517Z,12.69
2022-12-25T12:20:38.351Z,12.79
2022-12-25T12:24:18.232Z,12.92
2022-12-25T12:27:40.382Z,12.91
2022-12-25T12:31:29.989Z,12.96
2022-12-25T12:35:05.843Z,12.91
2022-12-25T12:38:34.021Z,12.75
2022-12-25T12:41:53.950Z,12.63
2022-12-25T12:45:18.892Z,12.65
2022-12-25T12:48:40.970Z,12.42
2022-12-25T12:52:06.025Z,12.55
2022-12-25T12:55:29.047Z,12.66
2022-12-25T12:58:53.851Z,12.66
2022-12-25T13:02:31.109Z,12.72
2022-12-25T13:06:00.294Z,12.63
2022-12-25T13:09:34.686Z,12.66
2022-12-25T13:12:38.534Z,12.54
2022-12-25T13:15:47.876Z,12.52
2022-12-25T13:19:05.223Z,12.53
2022-12-25T13:22:39.040Z,12.57
2022-12-25T13:25:53.392Z,12.66
2022-12-25T13:29:01.984Z,12.65
2022-12-25T13:32:27.869Z,12.45
2022-12-25T13:35:46.879Z,12.49
2022-12-25T13:39:02.898Z,12.48
2022-12-25T13:42:15.604Z,12.51
2022-12-25T13:45:23.942Z,12.44
2022-12-25T13:48:37.557Z,12.45
2022-12-25T13:51:48.445Z,12.47
2022-12-25T13:55:12.679Z,12.39
2022-12-25T13:58:42.466Z,12.37
2022-12-25T14:01:47.519Z,12.33
2022-12-25T14:04:56.927Z,12.29
2022-12-25T14:08:17.311Z,12.20
2022-12-25T14:11:25.455Z,12.26
2022-12-25T14:14:44.181Z,12.24
2022-12-25T14:17:48.510Z,12.19
2022-12-25T14:21:16.806Z,12.11
2022-12-25T14:24:26.998Z,12.01
2022-12-25T14:27:33.115Z,11.93
2022-12-25T14:30:47.499Z,11.90
2022-12-25T14:34:07.652Z,11.87
2022-12-25T14:37:32.571Z,11.85
2022-12-25T14:40:48.675Z,11.77
2022-12-25T14:44:14.746Z,11.65
2022-12-25T14:47:28.749Z,11.59
2022-12-25T14:50:56.513Z,11.56
2022-12-25T14:54:22.793Z,11.57
2022-12-25T14:57:38.600Z,11.51
2022-12-25T15:01:01.782Z,11.44
2022-12-25T15:04:25.694Z,11.38
2022-12-25T15:07:47.645Z,11.16
2022-12-25T15:11:11.548Z,11.17
2022-12-25T15:14:26.618Z,11.17
2022-12-25T15:17:50.496Z,11.12
2022-12-25T15:21:14.490Z,11.03
2022-12-25T15:24:24.531Z,10.91
2022-12-25T15:27:42.063Z,10.84
2022-12-25T15:31:10.538Z,10.74
2022-12-25T15:34:21.598Z,10.70
2022-12-25T15:37:25.551Z,10.68
2022-12-25T15:40:28.634Z,10.69
2022-12-25T15:43:41.381Z,10.73
2022-12-25T15:46:46.132Z,10.61
2022-12-25T15:49:52.943Z,10.64
2022-12-25T15:53:05.874Z,10.52
2022-12-25T15:56:11.685Z,10.41
2022-12-25T15:59:20.987Z,10.32
2022-12-25T16:02:42.207Z,10.22
2022-12-25T16:06:05.364Z,10.10
2022-12-25T16:09:33.226Z,10.13
2022-12-25T16:12:48.304Z,10.18
2022-12-25T16:16:04.449Z,10.33
2022-12-25T16:19:34.324Z,10.42
2022-12-25T16:22:55.168Z,10.53
2022-12-25T16:26:18.292Z,10.60
2022-12-25T16:29:42.284Z,10.68
2022-12-25T16:33:04.355Z,10.70
2022-12-25T16:36:27.188Z,10.64
2022-12-25T16:39:43.408Z,10.44
2022-12-25T16:43:03.292Z,10.35
2022-12-25T16:46:33.237Z,10.32
2022-12-25T16:49:49.284Z,10.29
2022-12-25T16:53:12.579Z,10.25
2022-12-25T16:56:35.300Z,10.25
2022-12-25T17:00:02.259Z,10.20
2022-12-25T17:03:26.466Z,10.11
2022-12-25T17:06:46.337Z,10.07
2022-12-25T17:10:04.218Z,9.99
2022-12-25T17:13:34.204Z,9.94
2022-12-25T17:16:55.256Z,9.90
2022-12-25T17:20:12.374Z,9.86
2022-12-25T17:23:35.191Z,9.84
2022-12-25T17:26:49.262Z,9.81
2022-12-25T17:29:54.214Z,9.77
2022-12-25T17:32:58.322Z,9.70
2022-12-25T17:36:12.049Z,9.68
2022-12-25T17:39:35.095Z,9.64
2022-12-25T17:42:56.136Z,9.61
2022-12-25T17:46:13.398Z,9.53
2022-12-25T17:49:42.118Z,9.60
2022-12-25T17:52:57.029Z,9.63
2022-12-25T17:56:01.014Z,9.60
2022-12-25T17:59:30.024Z,9.57
2022-12-25T18:02:43.905Z,9.57
2022-12-25T18:05:54.535Z,9.54
2022-12-25T18:09:00.586Z,9.46
2022-12-25T18:12:04.450Z,9.39
2022-12-25T18:15:08.932Z,9.31
2022-12-25T18:18:29.751Z,9.23
2022-12-25T18:21:39.901Z,9.21
2022-12-25T18:24:56.142Z,9.09
2022-12-25T18:28:25.049Z,8.98
2022-12-25T18:31:58.995Z,9.04
2022-12-25T18:35:21.981Z,9.10
2022-12-25T18:38:43.947Z,9.19
2022-12-25T18:42:19.989Z,9.19
2022-12-25T18:45:31.037Z,9.16
2022-12-25T18:48:51.805Z,9.15
2022-12-25T18:52:47.536Z,9.12
2022-12-25T18:55:41.000Z,9.08
2022-12-25T18:58:57.931Z,9.06
2022-12-25T19:02:22.074Z,9.10
2022-12-25T19:05:45.078Z,9.12
2022-12-25T19:09:09.845Z,9.18
2022-12-25T19:12:27.901Z,9.25
2022-12-25T19:15:53.924Z,9.31
2022-12-25T19:19:15.863Z,9.31
2022-12-25T19:22:39.036Z,9.33
2022-12-25T19:25:56.060Z,9.34
2022-12-25T19:29:13.963Z,9.34
2022-12-25T19:32:37.114Z,9.33
2022-12-25T19:36:01.922Z,9.32
2022-12-25T19:39:25.104Z,9.37
2022-12-25T19:42:48.825Z,9.41
2022-12-25T19:46:09.996Z,9.41
2022-12-25T19:49:29.918Z,9.45
2022-12-25T19:52:49.850Z,9.44
2022-12-25T19:56:12.943Z,9.44
2022-12-25T19:59:16.341Z,9.42
2022-12-25T20:02:20.321Z,9.36
2022-12-25T20:05:40.577Z,9.61
2022-12-25T20:09:04.508Z,9.83
2022-12-25T20:12:20.951Z,9.98
2022-12-25T20:15:40.746Z,10.05
2022-12-25T20:19:07.779Z,10.19
2022-12-25T20:22:29.601Z,10.26
2022-12-25T20:25:52.601Z,10.16
2022-12-25T20:29:14.592Z,10.00
2022-12-25T20:32:36.565Z,9.86
2022-12-25T20:35:45.980Z,9.74
2022-12-25T20:38:49.669Z,9.69
2022-12-25T20:41:53.392Z,9.63
2022-12-25T20:44:56.141Z,9.64
2022-12-25T20:48:00.432Z,9.71
2022-12-25T20:51:21.863Z,9.74
2022-12-25T20:54:35.485Z,9.70
2022-12-25T20:57:53.535Z,9.67
2022-12-25T21:01:19.643Z,9.71
2022-12-25T21:04:40.615Z,9.81
2022-12-25T21:08:02.622Z,9.77
2022-12-25T21:11:24.656Z,9.68
2022-12-25T21:14:47.598Z,9.69
2022-12-25T21:18:11.461Z,9.65
2022-12-25T21:21:33.543Z,9.73
2022-12-25T21:24:56.628Z,9.85
2022-12-25T21:27:59.969Z,9.88
2022-12-25T21:31:08.347Z,9.96
2022-12-25T21:34:15.582Z,9.88
2022-12-25T21:37:32.116Z,9.90
2022-12-25T21:40:54.516Z,9.85
2022-12-25T21:44:20.087Z,9.93
2022-12-25T21:48:01.881Z,9.96
2022-12-25T21:51:36.833Z,10.04
2022-12-25T21:54:40.730Z,10.03
2022-12-25T21:57:48.487Z,9.95
2022-12-25T22:01:09.680Z,9.91
2022-12-25T22:04:28.699Z,9.84
2022-12-25T22:07:49.956Z,9.78
2022-12-25T22:11:37.074Z,9.78
2022-12-25T22:14:54.883Z,9.71
2022-12-25T22:18:22.141Z,9.69
2022-12-25T22:21:26.543Z,9.74
2022-12-25T22:24:29.352Z,9.75
2022-12-25T22:27:33.989Z,9.74
2022-12-25T22:30:42.168Z,9.72
2022-12-25T22:33:55.922Z,9.80
2022-12-25T22:37:08.595Z,9.77
2022-12-25T22:40:17.584Z,9.71
2022-12-25T22:43:43.308Z,9.67
2022-12-25T22:46:48.773Z,9.65
2022-12-25T22:50:06.171Z,9.68
2022-12-25T22:53:28.170Z,9.79
2022-12-25T22:56:44.616Z,9.77
2022-12-25T22:59:54.106Z,9.74
2022-12-25T23:03:04.903Z,9.73
2022-12-25T23:06:14.725Z,9.61
2022-12-25T23:09:31.557Z,9.61
2022-12-25T23:12:57.892Z,9.80
2022-12-25T23:16:13.565Z,9.74
2022-12-25T23:19:39.506Z,9.73
2022-12-25T23:23:14.730Z,9.71
2022-12-25T23:26:23.864Z,9.76
2022-12-25T23:29:46.298Z,9.72
2022-12-25T23:32:49.941Z,9.78
2022-12-25T23:35:54.631Z,9.69
2022-12-25T23:39:01.737Z,9.62
2022-12-25T23:42:22.511Z,9.64
2022-12-25T23:45:25.452Z,9.63
2022-12-25T23:48:29.539Z,9.71
2022-12-25T23:51:43.873Z,9.47
2022-12-25T23:54:59.296Z,9.41
2022-12-25T23:58:15.295Z,9.43
